createdAt,value
2019-03-20T00:04:49.563Z,22.50
2019-03-20T00:09:47.860Z,22.40
2019-03-20T00:14:49.224Z,22.40
2019-03-20T00:19:50.600Z,22.40
2019-03-20T00:24:51.935Z,22.40
2019-03-20T00:29:53.340Z,22.40
2019-03-20T00:35:00.716Z,22.40
2019-03-20T00:39:58.091Z,22.40
2019-03-20T00:44:59.464Z,22.40
2019-03-20T00:50:00.805Z,22.40
2019-03-20T00:55:04.691Z,22.40
2019-03-20T01:00:17.500Z,22.40
2019-03-20T01:05:20.984Z,22.40
2019-03-20T01:10:23.370Z,22.40
2019-03-20T01:15:24.730Z,22.30
2019-03-20T01:20:26.118Z,22.30
2019-03-20T01:25:27.588Z,22.30
2019-03-20T01:30:31.095Z,22.40
2019-03-20T01:35:33.691Z,22.30
2019-03-20T01:40:35.231Z,22.30
2019-03-20T01:45:36.776Z,22.30
2019-03-20T01:50:38.292Z,22.30
2019-03-20T01:55:39.631Z,22.30
2019-03-20T02:00:41.101Z,22.30
2019-03-20T02:05:42.456Z,22.30
2019-03-20T02:10:43.849Z,22.30
2019-03-20T02:15:45.183Z,22.20
2019-03-20T02:20:46.807Z,22.30
2019-03-20T02:25:48.218Z,22.30
2019-03-20T02:30:49.620Z,22.30
2019-03-20T02:35:52.344Z,22.30
2019-03-20T02:40:54.932Z,22.30
2019-03-20T02:45:56.218Z,22.30
2019-03-20T02:50:57.625Z,22.20
2019-03-20T02:55:59.000Z,22.30
2019-03-20T03:01:00.489Z,22.20
2019-03-20T03:06:07.269Z,22.20
2019-03-20T03:11:05.447Z,22.30
2019-03-20T03:16:07.832Z,22.30
2019-03-20T03:21:09.166Z,22.30
2019-03-20T03:26:10.662Z,22.20
2019-03-20T03:31:11.997Z,22.20
2019-03-20T03:36:21.224Z,22.20
2019-03-20T03:41:18.663Z,22.30
2019-03-20T03:46:19.997Z,22.20
2019-03-20T03:51:21.385Z,22.30
2019-03-20T03:56:22.810Z,22.20
2019-03-20T04:01:24.218Z,22.20
2019-03-20T04:06:35.492Z,22.20
2019-03-20T04:11:29.171Z,22.30
2019-03-20T04:16:30.626Z,22.20
2019-03-20T04:21:32.020Z,22.30
2019-03-20T04:26:33.482Z,22.30
2019-03-20T04:31:34.816Z,22.30
2019-03-20T04:36:47.218Z,22.40
2019-03-20T04:41:39.514Z,22.30
2019-03-20T04:46:40.843Z,22.30
2019-03-20T04:51:42.353Z,22.30
2019-03-20T04:56:43.682Z,22.30
2019-03-20T05:01:46.127Z,22.40
2019-03-20T05:06:57.959Z,22.30
2019-03-20T05:11:51.878Z,22.30
2019-03-20T05:16:53.340Z,22.30
2019-03-20T05:21:54.743Z,22.30
2019-03-20T05:26:56.200Z,22.30
2019-03-20T05:31:57.533Z,22.20
2019-03-20T05:37:09.609Z,22.20
2019-03-20T05:42:02.345Z,22.30
2019-03-20T05:47:03.662Z,22.20
2019-03-20T05:52:05.152Z,22.20
2019-03-20T05:57:06.516Z,22.10
2019-03-20T06:02:07.927Z,22.20
2019-03-20T06:07:09.331Z,22.20
2019-03-20T06:12:10.728Z,22.20
2019-03-20T06:17:12.058Z,22.20
2019-03-20T06:22:13.459Z,22.30
2019-03-20T06:27:14.790Z,22.30
2019-03-20T06:32:16.171Z,22.30
2019-03-20T06:37:17.535Z,22.20
2019-03-20T06:42:18.916Z,22.20
2019-03-20T06:47:20.283Z,22.20
2019-03-20T06:52:21.739Z,22.20
2019-03-20T06:57:23.083Z,22.30
2019-03-20T07:02:24.497Z,22.30
2019-03-20T07:07:31.538Z,22.40
2019-03-20T07:12:33.022Z,22.40
2019-03-20T07:17:34.387Z,22.40
2019-03-20T07:22:35.762Z,22.40
2019-03-20T07:27:37.444Z,22.50
2019-03-20T07:32:38.886Z,22.50
2019-03-20T07:37:40.342Z,22.60
2019-03-20T07:42:41.809Z,22.50
2019-03-20T07:47:43.120Z,22.60
2019-03-20T07:52:44.546Z,22.50
2019-03-20T07:57:45.952Z,22.60
2019-03-20T08:02:48.526Z,22.70
2019-03-20T08:07:49.847Z,22.70
2019-03-20T08:12:51.297Z,22.70
2019-03-20T08:17:54.362Z,22.70
2019-03-20T08:22:55.707Z,22.80
2019-03-20T08:27:57.065Z,23.00
2019-03-20T08:32:58.459Z,23.00
2019-03-20T08:38:00.164Z,22.90
2019-03-20T08:43:01.604Z,23.00
2019-03-20T08:48:03.620Z,23.10
2019-03-20T08:53:05.050Z,23.00
2019-03-20T08:58:06.599Z,23.00
2019-03-20T09:03:07.955Z,22.90
2019-03-20T09:08:09.355Z,23.00
2019-03-20T09:13:12.719Z,23.00
2019-03-20T09:18:14.125Z,22.90
2019-03-20T09:23:15.540Z,22.90
2019-03-20T09:28:16.954Z,23.00
2019-03-20T09:33:18.406Z,23.10
2019-03-20T09:38:20.028Z,23.20
2019-03-20T09:43:21.420Z,23.20
2019-03-20T09:48:23.848Z,23.20
2019-03-20T09:53:25.613Z,23.20
2019-03-20T09:58:27.041Z,23.20
2019-03-20T10:03:28.384Z,23.20
2019-03-20T10:08:29.818Z,23.30
2019-03-20T10:13:31.220Z,23.40
2019-03-20T10:18:33.275Z,23.50
2019-03-20T10:23:34.667Z,23.60
2019-03-20T10:28:36.067Z,23.60
2019-03-20T10:33:37.483Z,23.60
2019-03-20T10:38:39.175Z,23.60
2019-03-20T10:43:40.667Z,23.60
2019-03-20T10:48:42.147Z,23.60
2019-03-20T10:53:43.603Z,23.60
2019-03-20T10:58:45.057Z,23.70
2019-03-20T11:03:46.439Z,23.80
2019-03-20T11:08:48.035Z,24.00
2019-03-20T11:13:49.405Z,24.00
2019-03-20T11:18:50.856Z,24.00
2019-03-20T11:23:53.358Z,24.00
2019-03-20T11:28:58.170Z,24.00
2019-03-20T11:33:59.781Z,24.00
2019-03-20T11:39:01.387Z,24.00
2019-03-20T11:44:03.170Z,24.00
2019-03-20T11:49:04.523Z,24.00
2019-03-20T11:54:05.919Z,24.00
2019-03-20T11:59:07.390Z,23.90
2019-03-20T12:04:08.845Z,23.90
2019-03-20T12:09:10.351Z,24.00
2019-03-20T12:14:12.191Z,24.00
2019-03-20T12:19:13.665Z,24.00
2019-03-20T12:24:15.190Z,24.00
2019-03-20T12:29:16.616Z,24.10
2019-03-20T12:34:18.034Z,24.10
2019-03-20T12:39:19.521Z,24.10
2019-03-20T12:44:20.988Z,24.10
2019-03-20T12:49:22.494Z,24.10
2019-03-20T12:54:23.920Z,24.10
2019-03-20T12:59:25.580Z,24.10
2019-03-20T13:04:26.951Z,24.10
2019-03-20T13:09:28.428Z,24.20
2019-03-20T13:14:30.008Z,24.10
2019-03-20T13:19:31.365Z,24.10
2019-03-20T13:24:32.837Z,24.10
2019-03-20T13:29:34.284Z,24.10
2019-03-20T13:34:35.759Z,24.10
2019-03-20T13:39:37.294Z,24.10
2019-03-20T13:44:38.689Z,24.00
2019-03-20T13:49:41.100Z,24.00
2019-03-20T13:54:42.521Z,23.90
2019-03-20T13:59:43.903Z,23.90
2019-03-20T14:04:45.339Z,23.90
2019-03-20T14:09:46.721Z,24.00
2019-03-20T14:14:48.491Z,24.00
2019-03-20T14:19:50.011Z,24.00
2019-03-20T14:24:51.474Z,24.10
2019-03-20T14:29:52.880Z,24.10
2019-03-20T14:34:55.190Z,24.00
2019-03-20T14:39:56.694Z,23.90
2019-03-20T14:44:58.172Z,23.80
2019-03-20T14:49:59.592Z,23.70
2019-03-20T14:55:00.977Z,23.60
2019-03-20T15:00:08.295Z,23.60
2019-03-20T15:05:10.301Z,23.70
2019-03-20T15:10:15.016Z,23.80
2019-03-20T15:15:39.428Z,23.80
2019-03-20T15:20:41.004Z,23.80
2019-03-20T15:25:44.296Z,23.80
2019-03-20T15:30:45.740Z,23.80
2019-03-20T15:35:47.178Z,23.60
2019-03-20T15:40:55.907Z,23.50
2019-03-20T15:45:51.980Z,23.40
2019-03-20T15:50:53.418Z,23.40
2019-03-20T15:55:54.804Z,23.50
2019-03-20T16:00:56.282Z,23.60
2019-03-20T16:05:57.633Z,23.60
2019-03-20T16:11:06.621Z,23.50
2019-03-20T16:16:16.616Z,23.60
2019-03-20T16:21:17.981Z,23.50
2019-03-20T16:26:19.387Z,23.50
2019-03-20T16:31:21.896Z,23.60
2019-03-20T16:36:23.415Z,23.60
2019-03-20T16:41:24.895Z,23.60
2019-03-20T16:46:26.545Z,23.60
2019-03-20T16:51:27.918Z,23.60
2019-03-20T16:56:29.355Z,23.50
2019-03-20T17:01:30.734Z,23.60
2019-03-20T17:06:32.057Z,23.50
2019-03-20T17:11:38.300Z,23.60
2019-03-20T17:16:37.728Z,23.40
2019-03-20T17:21:39.267Z,23.50
2019-03-20T17:26:40.590Z,23.50
2019-03-20T17:31:42.014Z,23.50
2019-03-20T17:36:43.454Z,23.50
2019-03-20T17:41:44.826Z,23.40
2019-03-20T17:46:46.180Z,23.50
2019-03-20T17:51:47.510Z,23.40
2019-03-20T17:56:48.931Z,23.40
2019-03-20T18:01:50.271Z,23.40
2019-03-20T18:06:51.625Z,23.40
2019-03-20T18:11:53.037Z,23.40
2019-03-20T18:16:54.365Z,23.40
2019-03-20T18:21:55.743Z,23.40
2019-03-20T18:26:57.067Z,23.30
2019-03-20T18:31:58.424Z,23.30
2019-03-20T18:36:59.747Z,23.30
2019-03-20T18:42:02.313Z,23.30
2019-03-20T18:47:03.707Z,23.30
2019-03-20T18:52:10.995Z,23.30
2019-03-20T18:57:12.370Z,23.20
2019-03-20T19:02:13.692Z,23.20
2019-03-20T19:07:15.032Z,23.30
2019-03-20T19:12:16.479Z,23.20
2019-03-20T19:17:17.823Z,23.20
2019-03-20T19:22:19.252Z,23.20
2019-03-20T19:27:20.683Z,23.20
2019-03-20T19:32:22.023Z,23.20
2019-03-20T19:37:23.372Z,23.20
2019-03-20T19:42:24.708Z,23.20
2019-03-20T19:47:26.048Z,23.20
2019-03-20T19:52:27.401Z,23.20
2019-03-20T19:57:29.748Z,23.10
2019-03-20T20:02:31.066Z,23.20
2019-03-20T20:07:32.402Z,23.20
2019-03-20T20:12:33.759Z,23.20
2019-03-20T20:17:35.101Z,23.20
2019-03-20T20:22:36.447Z,23.20
2019-03-20T20:27:37.800Z,23.20
2019-03-20T20:32:39.217Z,23.20
2019-03-20T20:37:40.800Z,23.20
2019-03-20T20:42:43.262Z,23.20
2019-03-20T20:47:44.784Z,23.20
2019-03-20T20:52:46.210Z,23.20
2019-03-20T20:57:47.739Z,23.20
2019-03-20T21:02:50.996Z,23.20
2019-03-20T21:07:52.480Z,23.20
2019-03-20T21:12:56.599Z,23.10
2019-03-20T21:18:43.071Z,23.10
2019-03-20T21:24:21.740Z,23.10
2019-03-20T21:30:11.621Z,23.10
2019-03-20T21:35:47.568Z,23.10
2019-03-20T21:41:12.910Z,23.10
2019-03-20T21:47:07.655Z,23.10
2019-03-20T21:52:09.003Z,23.10
2019-03-20T21:57:48.171Z,23.10
2019-03-20T22:02:49.517Z,23.10
2019-03-20T22:07:51.870Z,23.10
2019-03-20T22:13:18.819Z,23.10
2019-03-20T22:18:56.187Z,23.10
2019-03-20T22:24:06.286Z,23.10
2019-03-20T22:29:23.032Z,23.10
2019-03-20T22:34:42.153Z,23.10
2019-03-20T22:40:15.330Z,23.10
2019-03-20T22:45:58.714Z,23.00
2019-03-20T22:51:31.808Z,23.00
2019-03-20T22:57:08.590Z,23.00
2019-03-20T23:02:32.483Z,23.00
2019-03-20T23:07:33.820Z,23.00
2019-03-20T23:12:35.244Z,23.00
2019-03-20T23:17:36.602Z,23.00
2019-03-20T23:22:37.928Z,23.00
2019-03-20T23:27:39.274Z,23.00
2019-03-20T23:32:40.610Z,23.00
2019-03-20T23:37:42.952Z,23.00
2019-03-20T23:42:59.673Z,23.00
2019-03-20T23:48:21.174Z,23.00
2019-03-20T23:53:22.506Z,23.00
2019-03-20T23:58:23.845Z,23.00
